Time;durP1;ratioP1;P1;durP2;ratioP2;P2;SDS_P1;SDS_P2;PMS_P1;PMS_P2;Temp;Humidity;BMP_temperature;BMP_pressure;BME280_temperature;BME280_humidity;BME280_pressure;Samples;Min_cycle;Max_cycle;Signal;HPM_P1;HPM_P2
2022/09/27 00:00:24;;;;;;;7.40;4.13;;;;;;;7.88;100.00;99145.59;5069733;28;20040;-55
2022/09/27 00:02:50;;;;;;;7.55;4.07;;;;;;;7.74;100.00;99126.22;5069224;28;20459;-53
2022/09/27 00:05:16;;;;;;;8.10;4.28;;;;;;;7.87;100.00;99146.47;5084797;28;20044;-53
2022/09/27 00:07:43;;;;;;;43.13;6.82;;;;;;;7.89;100.00;99143.84;5089330;28;20558;-50
2022/09/27 00:10:09;;;;;;;8.55;4.38;;;;;;;7.88;100.00;99157.66;5071274;28;20514;-53
2022/09/27 00:12:35;;;;;;;8.63;4.80;;;;;;;7.89;100.00;99152.47;5086799;28;20068;-53
2022/09/27 00:15:02;;;;;;;8.23;3.90;;;;;;;7.89;100.00;99149.03;5051969;28;20139;-55
2022/09/27 00:17:30;;;;;;;6.57;4.30;;;;;;;7.90;100.00;99150.72;5052037;28;20036;-54
2022/09/27 00:19:59;;;;;;;9.82;4.55;;;;;;;7.74;100.00;99127.06;5050564;28;20052;-53
2022/09/27 00:22:25;;;;;;;8.48;4.53;;;;;;;7.91;100.00;99155.81;5059176;28;20450;-54
2022/09/27 00:24:51;;;;;;;8.40;4.43;;;;;;;7.93;100.00;99156.63;5069261;28;20076;-54
2022/09/27 00:27:18;;;;;;;7.28;4.03;;;;;;;7.94;100.00;99162.66;5069109;28;20079;-53
2022/09/27 00:29:48;;;;;;;8.57;4.15;;;;;;;7.94;100.00;99160.06;5086834;28;20039;-52
2022/09/27 00:32:14;;;;;;;9.63;4.00;;;;;;;7.94;100.00;99167.84;5077828;28;20070;-52
2022/09/27 00:34:40;;;;;;;77.78;7.82;;;;;;;7.91;100.00;99166.16;5069593;28;20090;-53
2022/09/27 00:37:07;;;;;;;18.08;4.72;;;;;;;7.69;100.00;99144.47;5051026;28;20037;-55
2022/09/27 00:39:33;;;;;;;17.52;4.57;;;;;;;7.69;100.00;99144.47;5033692;28;20059;-54
2022/09/27 00:41:58;;;;;;;13.50;4.78;;;;;;;7.78;100.00;99156.28;5077655;28;20071;-55
2022/09/27 00:44:24;;;;;;;7.45;4.07;;;;;;;7.72;100.00;99152.13;5082843;28;20418;-56
2022/09/27 00:47:15;;;;;;;6.97;4.13;;;;;;;7.66;100.00;99152.31;5068967;28;20044;-54
2022/09/27 00:49:54;;;;;;;7.53;4.35;;;;;;;7.62;100.00;99158.50;5064826;28;20072;-54
2022/09/27 00:52:24;;;;;;;7.53;3.88;;;;;;;7.60;100.00;99160.25;5076557;28;20055;-54
2022/09/27 00:54:54;;;;;;;8.90;4.05;;;;;;;7.57;100.00;99157.78;5057498;28;20040;-53
2022/09/27 00:57:21;;;;;;;8.82;4.47;;;;;;;7.57;100.00;99155.19;5051021;28;20213;-52
2022/09/27 00:59:54;;;;;;;8.30;4.28;;;;;;;7.39;100.00;99133.31;5047844;28;20059;-54
2022/09/27 01:02:19;;;;;;;8.88;4.93;;;;;;;7.43;100.00;99153.00;5045341;28;20078;-54
2022/09/27 01:04:46;;;;;;;9.38;4.18;;;;;;;7.41;100.00;99162.56;5050831;28;20044;-54
2022/09/27 01:07:13;;;;;;;8.35;4.35;;;;;;;7.37;100.00;99158.38;5017852;28;20461;-50
2022/09/27 01:09:39;;;;;;;8.30;4.60;;;;;;;7.35;100.00;99167.91;5069836;28;20036;-52
2022/09/27 01:12:27;;;;;;;8.57;4.97;;;;;;;7.31;100.00;99168.06;5064093;28;20041;-55
2022/09/27 01:15:24;;;;;;;8.82;4.63;;;;;;;6.94;100.00;99107.09;5047507;28;20048;-54
2022/09/27 01:17:50;;;;;;;11.13;5.22;;;;;;;7.20;100.00;99165.78;5074067;28;20372;-54
2022/09/27 01:20:19;;;;;;;11.20;5.80;;;;;;;7.13;100.00;99165.09;5056296;28;20052;-53
2022/09/27 01:23:08;;;;;;;9.45;4.55;;;;;;;7.10;100.00;99165.22;5046350;28;20462;-55
2022/09/27 01:25:55;;;;;;;18.35;6.38;;;;;;;7.10;100.00;99162.63;5065144;28;20043;-52
2022/09/27 01:28:41;;;;;;;17.70;7.03;;;;;;;7.13;100.00;99164.25;5072830;28;20051;-55
2022/09/27 01:31:13;;;;;;;211.75;18.67;;;;;;;7.08;100.00;99164.41;4975767;28;20061;-53
2022/09/27 01:34:01;;;;;;;149.02;19.15;;;;;;;7.02;100.00;99155.97;4996833;28;20054;-52
2022/09/27 01:36:48;;;;;;;44.95;14.68;;;;;;;7.09;100.00;99160.94;4977058;28;20049;-50
2022/09/27 01:39:38;;;;;;;31.13;10.38;;;;;;;7.23;100.00;99153.59;4976993;28;20065;-50
2022/09/27 01:42:57;;;;;;;27.13;9.38;;;;;;;7.37;100.00;99153.22;5007459;28;20776;-54
2022/09/27 01:45:40;;;;;;;27.90;11.48;;;;;;;7.21;100.00;99124.38;4989426;28;20136;-55
2022/09/27 01:48:21;;;;;;;31.77;11.45;;;;;;;7.43;100.00;99162.53;4985378;28;20050;-54
2022/09/27 01:50:54;;;;;;;36.63;11.05;;;;;;;7.48;100.00;99158.06;5005810;28;20599;-52
2022/09/27 01:53:28;;;;;;;80.80;9.38;;;;;;;7.44;100.00;99151.28;4976593;28;20046;-54
2022/09/27 01:56:18;;;;;;;189.82;15.20;;;;;;;7.30;100.00;99149.13;4995119;28;20073;-49
2022/09/27 01:58:56;;;;;;;191.52;14.52;;;;;;;7.15;100.00;99159.91;4993132;28;20041;-50
2022/09/27 02:01:23;;;;;;;92.38;10.98;;;;;;;7.03;100.00;99153.34;4992775;28;20065;-48
2022/09/27 02:03:51;;;;;;;166.43;13.23;;;;;;;6.97;100.00;99145.75;4992489;28;20053;-54
2022/09/27 02:06:42;;;;;;;204.55;15.15;;;;;;;6.91;100.00;99148.50;5008764;28;20057;-55
2022/09/27 02:09:15;;;;;;;69.95;9.40;;;;;;;6.95;100.00;99149.28;5038441;28;20156;-55
2022/09/27 02:12:02;;;;;;;26.40;7.32;;;;;;;7.06;100.00;99153.28;5071219;28;20068;-55
2022/09/27 02:14:32;;;;;;;18.88;6.53;;;;;;;7.13;100.00;99154.78;5059564;28;20427;-53
2022/09/27 02:17:15;;;;;;;14.48;6.15;;;;;;;7.21;100.00;99152.81;5072175;28;20050;-55
2022/09/27 02:20:04;;;;;;;20.60;6.68;;;;;;;7.27;100.00;99143.19;5072020;28;20068;-54
2022/09/27 02:22:50;;;;;;;35.20;7.75;;;;;;;7.31;100.00;99149.97;5072223;28;20048;-52
2022/09/27 02:25:47;;;;;;;15.75;6.70;;;;;;;7.13;100.00;99120.31;5044172;28;20044;-54
2022/09/27 02:28:25;;;;;;;18.92;5.80;;;;;;;7.36;100.00;99148.94;5035830;28;20135;-54
2022/09/27 02:30:51;;;;;;;11.38;4.55;;;;;;;7.38;100.00;99148.91;5053037;28;20055;-53
2022/09/27 02:34:04;;;;;;;12.25;3.40;;;;;;;7.38;100.00;99151.50;5059964;28;20044;-53
2022/09/27 02:36:30;;;;;;;13.25;4.47;;;;;;;7.41;100.00;99153.97;5055823;28;20082;-53
2022/09/27 02:38:59;;;;;;;7.00;3.30;;;;;;;7.37;100.00;99150.63;5055162;28;20036;-53
2022/09/27 02:41:26;;;;;;;5.18;3.17;;;;;;;7.35;100.00;99155.00;5072312;28;20436;-54
2022/09/27 02:43:56;;;;;;;5.88;3.40;;;;;;;7.34;100.00;99157.63;5064291;28;20430;-51
2022/09/27 02:46:49;;;;;;;9.57;4.47;;;;;;;7.36;100.00;99154.09;5055932;28;20514;-50
2022/09/27 02:49:19;;;;;;;116.30;9.70;;;;;;;7.35;100.00;99159.31;5066143;28;20075;-52
2022/09/27 02:52:05;;;;;;;112.07;8.95;;;;;;;7.19;100.00;99171.84;5052729;28;20075;-52
2022/09/27 02:54:43;;;;;;;69.72;8.73;;;;;;;7.12;100.00;99163.41;5047464;28;20040;-52
2022/09/27 02:58:10;;;;;;;25.90;7.45;;;;;;;7.13;100.00;99170.28;5072798;28;20081;-52
2022/09/27 03:01:17;;;;;;;17.15;6.15;;;;;;;7.17;100.00;99165.88;5067431;28;20137;-50
2022/09/27 03:04:37;;;;;;;13.25;5.35;;;;;;;7.20;100.00;99173.53;5044378;28;20044;-53
2022/09/27 03:07:03;;;;;;;16.35;5.88;;;;;;;7.20;100.00;99176.97;5085065;28;20542;-54
2022/09/27 03:09:43;;;;;;;12.05;5.05;;;;;;;7.24;100.00;99173.41;5051732;28;20044;-53
2022/09/27 03:12:09;;;;;;;40.33;7.28;;;;;;;7.29;100.00;99177.59;5052169;28;20028;-54
2022/09/27 03:14:35;;;;;;;10.80;4.85;;;;;;;7.11;100.00;99137.63;5079350;28;20128;-54
2022/09/27 03:17:15;;;;;;;26.30;5.80;;;;;;;7.39;100.00;99176.44;5020516;28;20078;-50
2022/09/27 03:20:07;;;;;;;14.07;4.57;;;;;;;7.42;100.00;99179.78;5079928;28;20052;-52
2022/09/27 03:22:51;;;;;;;10.77;4.75;;;;;;;7.47;100.00;99179.66;5057744;28;20040;-55
2022/09/27 03:25:18;;;;;;;19.02;7.45;;;;;;;7.49;100.00;99183.00;5066014;28;20534;-50
2022/09/27 03:27:44;;;;;;;19.17;7.80;;;;;;;7.51;100.00;99186.41;5071524;28;20036;-53
2022/09/27 03:30:13;;;;;;;20.15;6.80;;;;;;;7.55;100.00;99188.88;5050551;28;20036;-52
2022/09/27 03:32:43;;;;;;;24.23;8.02;;;;;;;7.30;100.00;99143.94;5066504;28;20139;-51
2022/09/27 03:35:27;;;;;;;13.57;6.47;;;;;;;7.56;100.00;99182.81;5049387;28;20070;-55
2022/09/27 03:37:53;;;;;;;12.52;6.00;;;;;;;7.60;100.00;99186.97;5051127;28;20045;-53
2022/09/27 03:40:19;;;;;;;14.27;6.00;;;;;;;7.60;100.00;99184.41;5049891;28;20080;-54
2022/09/27 03:42:45;;;;;;;13.90;5.93;;;;;;;7.62;100.00;99184.34;5054650;28;20600;-53
2022/09/27 03:45:12;;;;;;;12.63;6.05;;;;;;;7.67;100.00;99192.81;5066220;28;20082;-53
2022/09/27 03:47:41;;;;;;;9.57;4.90;;;;;;;7.70;100.00;99197.03;5037622;28;20044;-55
2022/09/27 03:50:09;;;;;;;17.40;5.43;;;;;;;7.73;100.00;99195.22;5050834;28;20089;-53
2022/09/27 03:52:36;;;;;;;12.52;6.10;;;;;;;7.74;100.00;99191.75;5051466;28;20036;-51
2022/09/27 03:55:02;;;;;;;11.90;6.50;;;;;;;7.75;100.00;99201.19;5078823;28;20040;-51
2022/09/27 03:57:30;;;;;;;10.98;5.45;;;;;;;7.78;100.00;99193.34;5070464;28;20051;-52
2022/09/27 03:59:58;;;;;;;14.48;5.75;;;;;;;7.81;100.00;99193.25;5067268;28;20080;-55
2022/09/27 04:02:50;;;;;;;10.45;5.25;;;;;;;7.85;100.00;99200.00;5068935;28;20424;-50
2022/09/27 04:05:25;;;;;;;12.10;5.45;;;;;;;7.89;100.00;99196.44;5070229;28;20036;-55
2022/09/27 04:08:11;;;;;;;;;;;;;;;7.92;100.00;99198.94;5068774;28;20118;-54
2022/09/27 04:10:37;;;;;;;11.20;4.97;;;;;;;7.93;100.00;99198.03;5050990;28;19966;-56
2022/09/27 04:13:04;;;;;;;10.23;5.60;;;;;;;7.95;99.73;99193.69;5051218;28;20052;-54
2022/09/27 04:15:34;;;;;;;10.15;5.50;;;;;;;8.02;99.54;99194.31;5035423;28;20040;-55
2022/09/27 04:18:18;;;;;;;12.05;5.22;;;;;;;8.01;99.27;99182.25;5053779;28;20067;-52
2022/09/27 04:21:00;;;;;;;10.07;5.13;;;;;;;8.19;98.89;99191.19;5068828;28;20743;-55
2022/09/27 04:23:29;;;;;;;11.30;5.47;;;;;;;8.26;98.61;99190.09;5035376;28;20052;-53
2022/09/27 04:25:55;;;;;;;11.27;5.20;;;;;;;8.34;98.41;99194.16;5039024;28;20051;-51
2022/09/27 04:28:41;;;;;;;9.95;5.30;;;;;;;8.45;98.18;99199.81;5033316;28;20053;-50
2022/09/27 04:31:07;;;;;;;11.23;5.78;;;;;;;8.55;97.36;99191.72;5051296;28;20075;-52
2022/09/27 04:33:53;;;;;;;9.43;5.32;;;;;;;8.64;97.42;99191.41;5049006;28;20036;-51
2022/09/27 04:36:26;;;;;;;12.50;6.20;;;;;;;8.72;96.84;99195.44;5069456;28;20092;-52
2022/09/27 04:39:12;;;;;;;10.90;6.05;;;;;;;8.79;96.55;99196.91;5066287;28;20059;-55
2022/09/27 04:41:42;;;;;;;15.60;6.97;;;;;;;8.88;96.21;99196.59;5051093;28;20040;-53
2022/09/27 04:44:07;;;;;;;14.18;6.30;;;;;;;8.96;96.35;99198.91;5050725;28;20290;-53
2022/09/27 04:46:34;;;;;;;13.18;5.72;;;;;;;9.06;95.84;99195.09;5065116;28;20049;-51
2022/09/27 04:49:01;;;;;;;13.23;7.45;;;;;;;9.15;95.26;99199.13;5049033;28;20589;-53
2022/09/27 04:51:28;;;;;;;14.07;7.15;;;;;;;9.30;94.95;99193.38;5051053;28;20489;-56
2022/09/27 04:53:56;;;;;;;16.00;6.60;;;;;;;9.39;95.15;99197.34;5051112;28;20135;-52
2022/09/27 04:56:25;;;;;;;13.60;6.07;;;;;;;9.21;94.24;99149.63;5052064;28;20675;-50
2022/09/27 04:58:52;;;;;;;15.75;6.82;;;;;;;9.59;93.89;99200.88;5050787;28;20037;-54
2022/09/27 05:01:18;;;;;;;16.08;7.28;;;;;;;9.66;92.78;99207.53;5056044;28;20045;-50
2022/09/27 05:03:56;;;;;;;24.70;8.57;;;;;;;9.54;92.60;99186.41;5052041;28;20037;-52
2022/09/27 05:06:23;;;;;;;22.90;9.48;;;;;;;9.75;92.45;99203.75;5062787;28;20048;-53
2022/09/27 05:08:49;;;;;;;24.52;10.60;;;;;;;9.86;91.73;99206.78;5053928;28;20085;-54
2022/09/27 05:11:17;;;;;;;21.38;10.48;;;;;;;9.96;90.96;99209.84;5070599;28;20048;-54
2022/09/27 05:14:07;;;;;;;21.98;9.55;;;;;;;10.01;90.64;99200.97;5070429;28;20135;-54
2022/09/27 05:16:43;;;;;;;19.85;10.00;;;;;;;10.08;90.22;99202.44;5051787;28;20040;-55
2022/09/27 05:19:44;;;;;;;28.55;11.27;;;;;;;10.07;89.54;99210.28;5028613;28;20069;-56
2022/09/27 05:22:15;;;;;;;38.30;12.30;;;;;;;10.14;89.23;99207.38;5058042;28;20102;-52
2022/09/27 05:24:40;;;;;;;27.88;11.70;;;;;;;10.22;88.61;99201.91;5069644;28;20085;-54
2022/09/27 05:27:08;;;;;;;31.85;12.98;;;;;;;10.30;88.47;99201.59;5063784;28;20048;-53
2022/09/27 05:29:34;;;;;;;27.38;12.00;;;;;;;10.21;88.10;99187.22;5053445;28;20072;-51
2022/09/27 05:32:16;;;;;;;33.40;15.98;;;;;;;10.37;87.51;99197.81;5067260;28;20040;-51
2022/09/27 05:34:44;;;;;;;29.60;11.95;;;;;;;10.49;87.15;99207.72;5050402;28;20115;-52
2022/09/27 05:37:10;;;;;;;25.25;10.45;;;;;;;10.48;86.82;99206.03;5065734;28;20471;-53
2022/09/27 05:39:38;;;;;;;21.95;9.45;;;;;;;10.58;86.31;99207.31;5043361;28;20068;-52
2022/09/27 05:42:06;;;;;;;18.25;8.70;;;;;;;10.60;86.02;99205.53;5050162;28;20463;-55
2022/09/27 05:44:32;;;;;;;17.98;9.55;;;;;;;10.46;86.12;99181.88;5049805;28;20535;-54
2022/09/27 05:47:03;;;;;;;16.67;9.57;;;;;;;10.63;85.93;99201.03;5050243;28;20534;-52
2022/09/27 05:49:31;;;;;;;19.20;9.75;;;;;;;10.67;84.88;99200.91;5049606;28;20056;-54
2022/09/27 05:51:57;;;;;;;25.38;13.70;;;;;;;10.76;84.91;99197.91;5045650;28;20158;-49
2022/09/27 05:54:26;;;;;;;19.90;10.27;;;;;;;10.85;84.31;99198.34;5033281;28;20068;-54
2022/09/27 05:56:57;;;;;;;14.45;8.35;;;;;;;10.79;83.96;99183.00;5036459;28;20051;-52
2022/09/27 05:59:46;;;;;;;17.45;8.65;;;;;;;10.72;83.34;99178.16;5050496;28;20041;-53
2022/09/27 06:02:31;;;;;;;16.50;8.52;;;;;;;10.82;82.82;99195.91;5050960;28;20094;-54
2022/09/27 06:05:15;;;;;;;19.52;10.80;;;;;;;10.72;82.93;99171.22;5051119;28;20092;-52
2022/09/27 06:08:04;;;;;;;23.77;10.77;;;;;;;10.99;82.78;99197.78;5050887;28;20036;-53
2022/09/27 06:10:37;;;;;;;15.23;8.57;;;;;;;10.89;82.60;99166.09;5035159;28;20037;-53
2022/09/27 06:13:13;;;;;;;16.95;9.73;;;;;;;11.13;81.77;99191.97;5033102;28;20044;-50
2022/09/27 06:15:42;;;;;;;16.90;8.57;;;;;;;11.21;81.35;99197.66;5052193;28;20048;-54
2022/09/27 06:18:10;;;;;;;17.33;9.38;;;;;;;11.25;81.31;99187.03;5046997;28;20076;-50
2022/09/27 06:20:38;;;;;;;15.88;9.27;;;;;;;11.32;80.94;99190.22;5067606;28;20044;-53
2022/09/27 06:23:06;;;;;;;16.13;9.15;;;;;;;11.39;81.25;99189.03;5052108;28;20055;-52
2022/09/27 06:25:33;;;;;;;17.57;9.50;;;;;;;11.50;80.64;99180.72;5069117;28;20080;-54
2022/09/27 06:28:37;;;;;;;19.50;9.23;;;;;;;11.71;79.61;99192.75;5042060;28;20824;-54
2022/09/27 06:31:07;;;;;;;17.42;9.25;;;;;;;11.42;79.41;99163.69;5054240;28;20060;-52
2022/09/27 06:33:47;;;;;;;15.80;9.10;;;;;;;11.81;78.67;99187.06;5057812;28;20044;-52
2022/09/27 06:36:13;;;;;;;14.25;8.70;;;;;;;12.11;78.19;99182.16;5050465;28;20113;-51
2022/09/27 06:38:40;;;;;;;22.88;12.93;;;;;;;12.20;77.47;99176.47;5065831;28;20044;-50
2022/09/27 06:41:29;;;;;;;17.30;11.05;;;;;;;12.22;76.92;99176.41;5051340;28;20049;-51
2022/09/27 06:44:04;;;;;;;14.68;8.48;;;;;;;12.17;76.83;99179.25;5058958;28;20479;-49
2022/09/27 06:46:37;;;;;;;14.80;8.50;;;;;;;12.15;76.60;99170.66;5059030;28;20037;-50
2022/09/27 06:49:24;;;;;;;13.20;9.02;;;;;;;12.27;76.75;99177.03;5059117;28;20746;-53
2022/09/27 06:51:51;;;;;;;12.52;8.15;;;;;;;12.62;76.04;99168.28;5041819;28;20098;-49
2022/09/27 06:54:17;;;;;;;12.63;7.72;;;;;;;12.57;74.67;99132.94;5049823;28;20512;-50
2022/09/27 06:56:46;;;;;;;17.88;8.43;;;;;;;12.80;74.50;99147.41;5061420;28;20427;-50
2022/09/27 07:02:15;;;;;;;15.68;9.73;;;;;;;13.33;72.68;99163.72;5057208;28;20040;-53
2022/09/27 07:04:42;;;;;;;18.88;8.90;;;;;;;13.53;72.17;99163.47;5051421;28;20448;-51
2022/09/27 07:07:27;;;;;;;14.25;8.52;;;;;;;14.03;70.87;99164.22;5059150;28;20072;-52
2022/09/27 07:09:53;;;;;;;14.02;8.52;;;;;;;14.25;69.61;99175.13;5047003;28;20041;-55
2022/09/27 07:12:21;;;;;;;12.07;8.60;;;;;;;13.96;69.46;99172.41;5051824;28;20424;-53
2022/09/27 07:14:48;;;;;;;14.00;8.40;;;;;;;13.76;69.71;99184.91;5044809;28;20043;-50
2022/09/27 07:17:16;;;;;;;17.15;9.00;;;;;;;14.26;69.25;99177.66;5054353;28;20135;-47
2022/09/27 07:19:46;;;;;;;12.05;8.30;;;;;;;15.98;65.61;99180.25;5041419;28;20520;-47
2022/09/27 07:22:12;;;;;;;12.60;8.13;;;;;;;17.23;62.51;99189.31;5032318;28;20040;-53
2022/09/27 07:24:39;;;;;;;12.30;8.57;;;;;;;17.87;59.97;99165.53;5058376;28;20880;-50
2022/09/27 07:27:05;;;;;;;16.25;8.77;;;;;;;16.96;60.00;99185.97;5059746;28;20044;-51
2022/09/27 07:29:31;;;;;;;19.05;9.20;;;;;;;16.00;61.57;99192.34;5041266;28;20705;-57
2022/09/27 07:31:58;;;;;;;13.38;8.80;;;;;;;16.32;60.87;99186.78;5034731;28;20153;-55
2022/09/27 07:34:26;;;;;;;14.82;8.40;;;;;;;17.14;59.38;99189.13;5043856;28;20630;-55
2022/09/27 07:36:53;;;;;;;14.68;7.45;;;;;;;18.56;55.96;99191.13;5050404;28;20042;-52
2022/09/27 07:39:21;;;;;;;11.68;8.10;;;;;;;19.30;53.80;99168.75;5053682;28;20106;-51
2022/09/27 07:41:47;;;;;;;10.18;7.50;;;;;;;19.70;52.79;99164.66;5057586;28;20041;-53
2022/09/27 07:44:15;;;;;;;12.88;9.30;;;;;;;20.27;51.67;99160.88;5060795;28;20048;-55
2022/09/27 07:46:56;;;;;;;16.63;9.90;;;;;;;21.54;48.89;99178.25;5049686;28;20176;-58
2022/09/27 07:49:27;;;;;;;14.45;9.30;;;;;;;22.40;46.56;99181.06;5050275;28;20421;-59
2022/09/27 07:52:13;;;;;;;12.57;7.28;;;;;;;23.43;44.20;99178.50;5048223;28;20057;-56
2022/09/27 07:55:05;;;;;;;9.45;7.65;;;;;;;24.24;42.57;99173.31;5043061;28;20479;-58
2022/09/27 07:57:47;;;;;;;11.93;8.43;;;;;;;24.39;41.68;99167.31;5061140;28;20147;-57
2022/09/27 08:00:15;;;;;;;11.32;8.50;;;;;;;24.43;41.20;99163.38;5053461;28;20123;-60
2022/09/27 08:02:43;;;;;;;10.45;7.88;;;;;;;24.93;40.05;99164.59;5054157;28;20064;-58
2022/09/27 08:05:11;;;;;;;9.00;7.57;;;;;;;25.57;39.06;99166.81;5036317;28;20050;-57
2022/09/27 08:07:38;;;;;;;13.60;8.82;;;;;;;26.20;38.00;99160.97;5031947;28;20040;-58
2022/09/27 08:10:07;;;;;;;11.33;8.13;;;;;;;26.71;36.33;99176.69;5039885;28;20393;-59
2022/09/27 08:12:36;;;;;;;19.48;8.55;;;;;;;27.05;35.49;99165.00;5050375;28;20295;-61
2022/09/27 08:15:03;;;;;;;14.50;8.75;;;;;;;27.45;34.64;99164.88;5042982;28;20063;-60
2022/09/27 08:17:29;;;;;;;10.25;9.05;;;;;;;27.68;33.55;99165.84;5054915;28;20470;-53
2022/09/27 08:20:15;;;;;;;14.15;9.32;;;;;;;27.63;32.93;99165.53;5042652;28;20147;-56
2022/09/27 08:23:05;;;;;;;11.20;8.80;;;;;;;27.24;33.69;99173.47;5059089;28;20450;-59
2022/09/27 08:25:37;;;;;;;12.05;8.82;;;;;;;27.61;32.91;99167.53;5058244;28;20131;-56
2022/09/27 08:28:08;;;;;;;9.93;8.93;;;;;;;27.86;32.09;99162.88;5060164;28;20424;-58
2022/09/27 08:30:41;;;;;;;12.23;9.23;;;;;;;28.27;31.40;99162.66;5038707;28;20067;-58
2022/09/27 08:33:08;;;;;;;12.85;10.13;;;;;;;28.61;31.15;99160.38;5060204;28;20068;-55
2022/09/27 08:35:35;;;;;;;11.15;9.98;;;;;;;28.54;30.98;99132.69;5045897;28;20174;-52
2022/09/27 08:38:04;;;;;;;10.20;9.20;;;;;;;28.32;31.29;99150.41;5059342;28;20040;-60
2022/09/27 08:40:58;;;;;;;14.70;12.68;;;;;;;27.27;32.04;99141.06;5054600;28;20052;-60
2022/09/27 08:43:30;;;;;;;10.77;9.48;;;;;;;27.20;32.06;99148.13;5034580;28;20055;-65
2022/09/27 08:46:12;;;;;;;15.95;10.70;;;;;;;28.16;30.72;99139.84;5054935;28;20420;-58
2022/09/27 08:48:38;;;;;;;14.35;10.43;;;;;;;29.30;29.38;99145.84;5032597;28;20611;-57
2022/09/27 08:51:06;;;;;;;14.57;11.68;;;;;;;30.07;28.32;99113.19;5034794;28;20460;-56
2022/09/27 08:53:33;;;;;;;11.13;8.32;;;;;;;30.88;27.23;99154.81;5042351;28;20060;-60
2022/09/27 08:56:01;;;;;;;15.98;10.20;;;;;;;30.52;27.54;99147.69;5051037;28;20049;-60
2022/09/27 08:58:34;;;;;;;11.63;8.77;;;;;;;30.62;27.10;99136.63;5031654;28;20079;-62
2022/09/27 09:01:05;;;;;;;11.23;9.23;;;;;;;30.87;27.07;99153.97;5024573;28;20114;-63
2022/09/27 09:03:44;;;;;;;10.15;7.72;;;;;;;29.59;27.46;99134.28;5031206;28;20504;-61
2022/09/27 09:06:19;;;;;;;9.80;7.60;;;;;;;27.55;29.45;99138.84;5031821;28;20041;-62
2022/09/27 09:08:54;;;;;;;9.70;7.90;;;;;;;26.45;30.78;99144.03;5032479;28;20057;-61
2022/09/27 09:14:47;;;;;;;12.43;9.57;;;;;;;26.34;31.22;99129.19;5029737;28;20049;-61
2022/09/27 09:17:23;;;;;;;20.13;13.43;;;;;;;24.67;33.52;99125.50;4987739;28;20143;-61
2022/09/27 09:20:39;;;;;;;12.50;8.65;;;;;;;23.02;35.82;99084.31;5036100;28;20056;-61
2022/09/27 09:23:05;;;;;;;10.82;8.73;;;;;;;22.50;37.46;99125.44;5037478;28;20041;-58
2022/09/27 09:26:05;;;;;;;11.73;8.00;;;;;;;21.64;38.38;99133.28;5020699;28;20068;-61
2022/09/27 09:28:59;;;;;;;18.92;13.45;;;;;;;21.94;38.52;99134.06;5009801;28;20578;-59
2022/09/27 09:31:42;;;;;;;17.23;10.98;;;;;;;21.60;39.14;99127.44;5032410;28;20040;-58
2022/09/27 09:34:17;;;;;;;15.73;10.50;;;;;;;21.41;39.51;99132.66;5022485;28;20158;-58
2022/09/27 09:37:02;;;;;;;14.43;9.20;;;;;;;20.92;40.08;99125.50;5013350;28;20452;-59
2022/09/27 09:39:36;;;;;;;16.33;13.10;;;;;;;20.43;40.90;99134.06;5016240;28;20041;-58
2022/09/27 09:42:23;;;;;;;14.63;9.10;;;;;;;20.30;41.79;99126.31;5038532;28;20148;-58
2022/09/27 09:45:23;;;;;;;12.13;7.82;;;;;;;19.99;42.23;99125.38;5024945;28;20528;-60
2022/09/27 09:48:31;;;;;;;13.93;9.07;;;;;;;19.49;43.18;99118.06;5038959;28;20081;-60
2022/09/27 09:51:00;;;;;;;13.05;8.57;;;;;;;19.16;44.01;99118.88;5054041;28;20033;-58
2022/09/27 09:53:41;;;;;;;11.20;9.10;;;;;;;20.00;43.17;99118.25;5034371;28;20147;-60
2022/09/27 09:56:47;;;;;;;15.38;8.50;;;;;;;20.15;42.36;99124.97;5033456;28;20088;-60
2022/09/27 09:59:17;;;;;;;14.80;8.32;;;;;;;19.34;43.71;99126.19;5016741;28;20049;-58
2022/09/27 10:01:47;;;;;;;9.88;7.78;;;;;;;19.22;43.82;99103.44;5033714;28;20107;-60
2022/09/27 10:04:19;;;;;;;12.05;8.20;;;;;;;19.25;44.39;99111.13;5050273;28;20098;-60
2022/09/27 10:06:45;;;;;;;15.40;8.63;;;;;;;18.98;44.70;99119.38;5049453;28;20405;-60
2022/09/27 10:09:14;;;;;;;13.98;8.40;;;;;;;19.90;43.40;99097.09;5052344;28;20044;-58
2022/09/27 10:11:52;;;;;;;15.45;9.02;;;;;;;20.77;41.66;99116.22;5055838;28;20051;-55
2022/09/27 10:14:25;;;;;;;21.30;12.35;;;;;;;20.77;41.73;99121.50;5060722;28;20123;-60
2022/09/27 10:17:03;;;;;;;12.18;8.63;;;;;;;20.38;42.69;99115.97;5066782;28;20044;-61
2022/09/27 10:19:31;;;;;;;10.93;7.97;;;;;;;19.89;43.41;99112.06;5061367;28;20536;-61
2022/09/27 10:22:10;;;;;;;11.65;8.15;;;;;;;19.45;44.56;99112.19;5046338;28;20151;-60
2022/09/27 10:25:13;;;;;;;11.63;8.13;;;;;;;19.17;44.73;99108.22;5043231;28;20530;-59
2022/09/27 10:28:01;;;;;;;14.98;8.65;;;;;;;18.83;45.36;99103.94;4989485;28;20101;-60
2022/09/27 10:30:33;;;;;;;17.17;11.05;;;;;;;19.20;45.11;99105.38;5057684;28;20102;-51
2022/09/27 10:33:12;;;;;;;12.18;8.65;;;;;;;18.98;45.63;99110.66;5049442;28;20041;-61
2022/09/27 10:35:45;;;;;;;11.52;7.50;;;;;;;20.36;43.54;99102.06;5032048;28;20045;-51
2022/09/27 10:38:26;;;;;;;10.75;6.78;;;;;;;20.73;42.47;99109.53;5051379;28;20052;-46
2022/09/27 10:41:25;;;;;;;10.13;7.00;;;;;;;19.87;43.17;99103.47;5061770;28;20044;-53
2022/09/27 10:44:17;;;;;;;9.55;6.75;;;;;;;18.99;43.95;99072.81;5033080;28;20094;-48
2022/09/27 10:46:52;;;;;;;10.82;6.88;;;;;;;18.81;44.67;99108.47;5073177;28;20544;-47
2022/09/27 10:49:40;;;;;;;9.13;6.90;;;;;;;18.65;44.97;99098.28;5041833;28;20140;-50
2022/09/27 10:52:32;;;;;;;15.48;6.88;;;;;;;18.44;45.59;99091.97;5030259;28;20045;-52
2022/09/27 10:55:03;;;;;;;9.52;6.85;;;;;;;18.25;46.52;99092.53;5034733;28;20039;-50
2022/09/27 10:57:30;;;;;;;11.02;7.07;;;;;;;18.03;47.08;99097.72;5032035;28;20049;-53
2022/09/27 11:00:03;;;;;;;18.30;9.90;;;;;;;17.96;47.73;99088.59;5032178;28;20063;-53
2022/09/27 11:02:33;;;;;;;10.45;7.07;;;;;;;18.07;47.17;99093.91;5034373;28;20041;-51
2022/09/27 11:05:12;;;;;;;13.13;6.45;;;;;;;17.75;47.49;99086.59;5035214;28;20038;-52
2022/09/27 11:07:51;;;;;;;9.75;6.75;;;;;;;17.03;47.44;99037.53;5014578;28;20049;-55
2022/09/27 11:10:27;;;;;;;15.35;8.93;;;;;;;17.07;48.01;99091.50;5031490;28;20041;-57
2022/09/27 11:13:17;;;;;;;12.38;7.18;;;;;;;16.91;48.53;99085.66;5047517;28;20058;-50
2022/09/27 11:16:11;;;;;;;12.18;7.15;;;;;;;17.17;47.92;99091.69;5035556;28;20080;-55
2022/09/27 11:18:57;;;;;;;11.55;5.18;;;;;;;17.56;45.39;99085.41;5030510;28;20150;-51
2022/09/27 11:21:44;;;;;;;8.82;5.40;;;;;;;17.09;46.36;99087.00;5029354;28;20049;-54
2022/09/27 11:24:35;;;;;;;7.30;3.50;;;;;;;16.68;46.14;99089.88;5036633;28;20065;-51
2022/09/27 11:27:36;;;;;;;6.88;3.40;;;;;;;16.33;46.57;99084.34;5035952;28;20055;-48
2022/09/27 11:30:09;;;;;;;4.80;3.65;;;;;;;16.52;46.21;99079.56;5035984;28;20056;-50
2022/09/27 11:32:53;;;;;;;7.30;3.33;;;;;;;16.85;45.61;99080.84;5043911;28;20109;-49
2022/09/27 11:35:27;;;;;;;7.75;3.58;;;;;;;17.09;44.98;99079.13;5030177;28;20050;-47
2022/09/27 11:38:12;;;;;;;4.20;3.20;;;;;;;17.44;44.67;99073.97;5039607;28;20040;-46
2022/09/27 11:41:13;;;;;;;6.60;3.20;;;;;;;18.44;43.15;99069.13;5008801;28;20045;-46
2022/09/27 11:44:01;;;;;;;4.15;2.65;;;;;;;18.77;42.43;99078.91;5047708;28;20051;-47
2022/09/27 11:46:31;;;;;;;5.03;3.35;;;;;;;18.53;42.54;99031.56;5035252;28;20424;-49
2022/09/27 11:49:17;;;;;;;4.40;2.85;;;;;;;18.70;42.57;99068.94;5011922;28;20049;-48
2022/09/27 11:51:53;;;;;;;7.30;2.67;;;;;;;19.37;41.88;99069.75;5023002;28;20095;-50
2022/09/27 11:54:26;;;;;;;5.35;2.22;;;;;;;19.61;41.34;99065.19;5030650;28;20045;-47
2022/09/27 11:57:22;;;;;;;5.40;2.83;;;;;;;19.29;41.58;99062.47;5046443;28;20044;-48
2022/09/27 12:00:08;;;;;;;7.40;4.03;;;;;;;19.33;41.70;99057.78;5046907;28;20041;-47
2022/09/27 12:03:19;;;;;;;7.75;3.47;;;;;;;18.96;42.14;99052.78;5027728;28;20126;-50
2022/09/27 12:06:13;;;;;;;8.23;3.05;;;;;;;18.82;43.04;99058.31;5032254;28;20076;-61
2022/09/27 12:09:01;;;;;;;7.72;4.00;;;;;;;18.88;42.82;99054.38;5043919;28;20041;-60
2022/09/27 12:11:35;;;;;;;6.82;2.78;;;;;;;19.33;42.41;99053.34;5037023;28;20120;-58
2022/09/27 12:14:09;;;;;;;3.30;2.42;;;;;;;18.98;42.63;99053.53;5047367;28;20041;-59